Etusivu
METAR-TAF:

METAR-TAF

Lentoasemat :

Ephrata Municipal Airport

Ephrata, Washington, Yhdysvallat

Leveyspiiri: 47-18-27N, Pituuspiiri: 119-30-57W, korkeus merenpinnasta: 389 m

Tämänhetkinen sää

Tämä raportti tehtiin 49 minuuttia sitten, kello 00.53 UTC
Tuuli 5 kn etelästä
Lämpötila -4°C
Kosteus 100%
Ilmanpaine 1026 hPa
Näkyvyys: 0.4 km
jäätävää sumua

METAR: KEPH 230053Z AUTO 18005KT 1/4SM FZFG VV001 M04/M04 A3029 RMK AO2 SLP276 T10391044

Aika: 17:42 (01:42 UTC)


TAF: puuttuu

Säähavainnot ja -ennusteet yli 4000 lentoasemalta (METAR- ja TAF-raportit).

Käytössä olevat sääasemat on merkitty karttaan keltaisilla ja punaisilla pisteillä.

Aseta hiiri pisteen päälle nähdäksesi sääaseman nimen.

Klikkaa sitten nähdäksesi säähavainnot ja -ennusteet.

Kartan vaihtaminen: klikkaa mustalla rastilla varustettuja vihreitä pisteitä, niin voit zoomata sisään; viivalla varustettua vihreää pistettä, niin voit zoomata ulos tai vihreitä nuolia, niin pääset viereisille kartoille.


METAR-TAF: